Keesler Air Force Base Biloxi US
ICAO: KBIX
IATA: BIX
Category: Medium
Scheduled Services: No

Elevation: 33 ft
TransAlt. 18000 ft.

Airport Communications:
GULFPORT APP/DEP:124.6
ATIS:25.6
CLNC DEL:121.8
GND:121.8
AEROMEDICAL EVAC:23.66
PMSV METRO:34.46
403 WG AFRC COMD:25.28
PTD:37.22
TWR:120.75

KBIX Zoom In..

If you have problems with the map follow the link
https://www.worldairports.se/pages/airport.php?
ICAO=KBIX

Runways:

(A) RW 03 length 7630 ft width 150 ft
---- / hdg 34

(B) RW 21 length 7630 ft width 150 ft
ILS 109.70 / hdg 214

Location; KBIX
Day. 07 / Time. 08.56 Zulu
* Altimeter: 30.13
* Temperature: 15° c. 59°f.
* Wind from: 040° Speed 08 kn.
Dewpoint: 14° c.
Visibility: 10 Statute Miles.
Clouds: Scattered 3600 ft.
Clouds: Broken 4500 ft.
Clouds: Broken 6500 ft.

KBIX 070856Z AUTO 04008KT 10SM SCT036 BKN045 BKN065 15/14 A3013 RMK AO2 SLP206 T01520139 50004


Wind From 040°
Speed 08 kn.

 
 
jpsmedia worldairports.se 2019   terms of use